sensor_id;sensor_type;location;lat;lon;timestamp;temperature;humidity
20714;DHT22;10518;50.742;4.226;2023-02-07T00:00:06;3.60;99.90
20714;DHT22;10518;50.742;4.226;2023-02-07T00:02:32;3.70;99.90
20714;DHT22;10518;50.742;4.226;2023-02-07T00:04:57;4.00;99.90
20714;DHT22;10518;50.742;4.226;2023-02-07T00:07:23;4.20;99.90
20714;DHT22;10518;50.742;4.226;2023-02-07T00:09:49;4.10;99.90
20714;DHT22;10518;50.742;4.226;2023-02-07T00:12:15;4.00;99.90
20714;DHT22;10518;50.742;4.226;2023-02-07T00:14:40;4.00;99.90
20714;DHT22;10518;50.742;4.226;2023-02-07T00:17:06;4.20;99.90
20714;DHT22;10518;50.742;4.226;2023-02-07T00:19:32;4.20;99.90
20714;DHT22;10518;50.742;4.226;2023-02-07T00:21:57;4.10;99.90
20714;DHT22;10518;50.742;4.226;2023-02-07T00:24:23;3.90;99.90
20714;DHT22;10518;50.742;4.226;2023-02-07T00:26:48;3.70;99.90
20714;DHT22;10518;50.742;4.226;2023-02-07T00:29:20;3.70;99.90
20714;DHT22;10518;50.742;4.226;2023-02-07T00:31:45;3.70;99.90
20714;DHT22;10518;50.742;4.226;2023-02-07T00:34:13;3.60;99.90
20714;DHT22;10518;50.742;4.226;2023-02-07T00:36:39;3.60;99.90
20714;DHT22;10518;50.742;4.226;2023-02-07T00:39:09;3.50;99.90
20714;DHT22;10518;50.742;4.226;2023-02-07T00:41:35;3.40;99.90
20714;DHT22;10518;50.742;4.226;2023-02-07T00:44:01;3.40;99.90
20714;DHT22;10518;50.742;4.226;2023-02-07T00:46:26;3.40;99.90
20714;DHT22;10518;50.742;4.226;2023-02-07T00:48:52;3.30;99.90
20714;DHT22;10518;50.742;4.226;2023-02-07T00:51:18;3.30;99.90
20714;DHT22;10518;50.742;4.226;2023-02-07T00:53:43;3.30;99.90
20714;DHT22;10518;50.742;4.226;2023-02-07T00:56:09;3.30;99.90
20714;DHT22;10518;50.742;4.226;2023-02-07T00:58:36;3.20;99.90
20714;DHT22;10518;50.742;4.226;2023-02-07T01:01:02;3.20;99.90
20714;DHT22;10518;50.742;4.226;2023-02-07T01:03:28;3.30;99.90
20714;DHT22;10518;50.742;4.226;2023-02-07T01:05:53;3.20;99.90
20714;DHT22;10518;50.742;4.226;2023-02-07T01:08:19;3.20;99.90
20714;DHT22;10518;50.742;4.226;2023-02-07T01:10:45;3.20;99.90
20714;DHT22;10518;50.742;4.226;2023-02-07T01:13:12;3.20;99.90
20714;DHT22;10518;50.742;4.226;2023-02-07T01:15:39;3.20;99.90
20714;DHT22;10518;50.742;4.226;2023-02-07T01:18:06;3.10;99.90
20714;DHT22;10518;50.742;4.226;2023-02-07T01:20:32;3.10;99.90
20714;DHT22;10518;50.742;4.226;2023-02-07T01:22:58;3.10;99.90
20714;DHT22;10518;50.742;4.226;2023-02-07T01:25:24;3.10;99.90
20714;DHT22;10518;50.742;4.226;2023-02-07T01:27:49;3.10;99.90
20714;DHT22;10518;50.742;4.226;2023-02-07T01:30:15;3.10;99.90
20714;DHT22;10518;50.742;4.226;2023-02-07T01:32:40;3.00;99.90
20714;DHT22;10518;50.742;4.226;2023-02-07T01:35:06;3.10;99.90
20714;DHT22;10518;50.742;4.226;2023-02-07T01:37:32;3.10;99.90
20714;DHT22;10518;50.742;4.226;2023-02-07T01:39:58;3.10;99.90
20714;DHT22;10518;50.742;4.226;2023-02-07T01:42:26;3.10;99.90
20714;DHT22;10518;50.742;4.226;2023-02-07T01:45:22;3.20;99.90
20714;DHT22;10518;50.742;4.226;2023-02-07T01:47:51;3.20;99.90
20714;DHT22;10518;50.742;4.226;2023-02-07T01:50:17;3.10;99.90
20714;DHT22;10518;50.742;4.226;2023-02-07T01:52:43;2.90;99.90
20714;DHT22;10518;50.742;4.226;2023-02-07T01:55:15;2.80;99.90
20714;DHT22;10518;50.742;4.226;2023-02-07T01:57:43;2.80;99.90
20714;DHT22;10518;50.742;4.226;2023-02-07T02:00:09;3.00;99.90
20714;DHT22;10518;50.742;4.226;2023-02-07T02:02:36;3.10;99.90
20714;DHT22;10518;50.742;4.226;2023-02-07T02:05:03;3.00;99.90
20714;DHT22;10518;50.742;4.226;2023-02-07T02:07:30;2.90;99.90
20714;DHT22;10518;50.742;4.226;2023-02-07T02:09:58;3.00;99.90
20714;DHT22;10518;50.742;4.226;2023-02-07T02:15:45;2.90;99.90
20714;DHT22;10518;50.742;4.226;2023-02-07T02:21:36;2.90;99.90
20714;DHT22;10518;50.742;4.226;2023-02-07T02:27:18;2.80;99.90
20714;DHT22;10518;50.742;4.226;2023-02-07T02:30:12;2.70;99.90
20714;DHT22;10518;50.742;4.226;2023-02-07T02:40:57;2.80;99.90
20714;DHT22;10518;50.742;4.226;2023-02-07T02:46:21;2.60;99.90
20714;DHT22;10518;50.742;4.226;2023-02-07T02:48:48;2.60;99.90
20714;DHT22;10518;50.742;4.226;2023-02-07T02:51:14;2.70;99.90
20714;DHT22;10518;50.742;4.226;2023-02-07T02:53:49;2.80;99.90
20714;DHT22;10518;50.742;4.226;2023-02-07T03:01:22;2.50;99.90
20714;DHT22;10518;50.742;4.226;2023-02-07T03:12:27;2.20;99.90
20714;DHT22;10518;50.742;4.226;2023-02-07T03:15:00;2.10;99.90
20714;DHT22;10518;50.742;4.226;2023-02-07T03:17:29;2.00;99.90
20714;DHT22;10518;50.742;4.226;2023-02-07T03:22:45;1.90;99.90
20714;DHT22;10518;50.742;4.226;2023-02-07T03:25:13;1.90;99.90
20714;DHT22;10518;50.742;4.226;2023-02-07T03:27:40;1.90;99.90
20714;DHT22;10518;50.742;4.226;2023-02-07T03:30:09;1.90;99.90
20714;DHT22;10518;50.742;4.226;2023-02-07T03:32:39;1.90;99.90
20714;DHT22;10518;50.742;4.226;2023-02-07T03:35:17;1.90;99.90
20714;DHT22;10518;50.742;4.226;2023-02-07T03:37:56;1.80;99.90
20714;DHT22;10518;50.742;4.226;2023-02-07T03:40:26;1.80;99.90
20714;DHT22;10518;50.742;4.226;2023-02-07T03:43:05;1.70;99.90
20714;DHT22;10518;50.742;4.226;2023-02-07T03:45:32;1.70;99.90
20714;DHT22;10518;50.742;4.226;2023-02-07T03:47:58;1.70;99.90
20714;DHT22;10518;50.742;4.226;2023-02-07T03:50:23;1.70;99.90
20714;DHT22;10518;50.742;4.226;2023-02-07T03:52:49;1.80;99.90
20714;DHT22;10518;50.742;4.226;2023-02-07T03:55:14;1.90;99.90
20714;DHT22;10518;50.742;4.226;2023-02-07T03:57:40;1.90;99.90
20714;DHT22;10518;50.742;4.226;2023-02-07T04:00:06;1.90;99.90
20714;DHT22;10518;50.742;4.226;2023-02-07T04:02:32;1.90;99.90
20714;DHT22;10518;50.742;4.226;2023-02-07T04:04:58;1.90;99.90
20714;DHT22;10518;50.742;4.226;2023-02-07T04:07:23;1.90;99.90
20714;DHT22;10518;50.742;4.226;2023-02-07T04:09:49;1.90;99.90
20714;DHT22;10518;50.742;4.226;2023-02-07T04:12:15;1.80;99.90
20714;DHT22;10518;50.742;4.226;2023-02-07T04:14:41;1.70;99.90
20714;DHT22;10518;50.742;4.226;2023-02-07T04:17:06;1.60;99.90
20714;DHT22;10518;50.742;4.226;2023-02-07T04:19:32;1.50;99.90
20714;DHT22;10518;50.742;4.226;2023-02-07T04:21:57;1.50;99.90
20714;DHT22;10518;50.742;4.226;2023-02-07T04:24:23;1.50;99.90
20714;DHT22;10518;50.742;4.226;2023-02-07T04:26:49;1.50;99.90
20714;DHT22;10518;50.742;4.226;2023-02-07T04:29:14;1.50;99.90
20714;DHT22;10518;50.742;4.226;2023-02-07T04:31:40;1.50;99.90
20714;DHT22;10518;50.742;4.226;2023-02-07T04:34:07;1.40;99.90
20714;DHT22;10518;50.742;4.226;2023-02-07T04:36:34;1.40;99.90
20714;DHT22;10518;50.742;4.226;2023-02-07T04:39:00;1.30;99.90
20714;DHT22;10518;50.742;4.226;2023-02-07T04:41:26;1.30;99.90
20714;DHT22;10518;50.742;4.226;2023-02-07T04:43:52;1.30;99.90
20714;DHT22;10518;50.742;4.226;2023-02-07T04:46:17;1.30;99.90
20714;DHT22;10518;50.742;4.226;2023-02-07T04:48:43;1.20;99.90
20714;DHT22;10518;50.742;4.226;2023-02-07T04:51:08;1.20;99.90
20714;DHT22;10518;50.742;4.226;2023-02-07T04:53:34;1.20;99.90
20714;DHT22;10518;50.742;4.226;2023-02-07T04:56:00;1.10;99.90
20714;DHT22;10518;50.742;4.226;2023-02-07T04:58:26;1.20;99.90
20714;DHT22;10518;50.742;4.226;2023-02-07T05:00:52;1.10;99.90
20714;DHT22;10518;50.742;4.226;2023-02-07T05:03:18;1.10;99.90
20714;DHT22;10518;50.742;4.226;2023-02-07T05:05:44;1.20;99.90
20714;DHT22;10518;50.742;4.226;2023-02-07T05:08:11;1.30;99.90
20714;DHT22;10518;50.742;4.226;2023-02-07T05:10:37;1.30;99.90
20714;DHT22;10518;50.742;4.226;2023-02-07T05:13:04;1.30;99.90
20714;DHT22;10518;50.742;4.226;2023-02-07T05:15:29;1.20;99.90
20714;DHT22;10518;50.742;4.226;2023-02-07T05:17:55;1.30;99.90
20714;DHT22;10518;50.742;4.226;2023-02-07T05:20:22;1.30;99.90
20714;DHT22;10518;50.742;4.226;2023-02-07T05:22:48;1.30;99.90
20714;DHT22;10518;50.742;4.226;2023-02-07T05:25:13;1.30;99.90
20714;DHT22;10518;50.742;4.226;2023-02-07T05:27:39;1.20;99.90
20714;DHT22;10518;50.742;4.226;2023-02-07T05:30:05;1.10;99.90
20714;DHT22;10518;50.742;4.226;2023-02-07T05:32:31;1.20;99.90
20714;DHT22;10518;50.742;4.226;2023-02-07T05:35:15;1.10;99.90
20714;DHT22;10518;50.742;4.226;2023-02-07T05:37:41;1.10;99.90
20714;DHT22;10518;50.742;4.226;2023-02-07T05:40:07;1.20;99.90
20714;DHT22;10518;50.742;4.226;2023-02-07T05:42:32;1.20;99.90
20714;DHT22;10518;50.742;4.226;2023-02-07T05:44:58;1.30;99.90
20714;DHT22;10518;50.742;4.226;2023-02-07T05:47:24;1.20;99.90
20714;DHT22;10518;50.742;4.226;2023-02-07T05:49:49;1.30;99.90
20714;DHT22;10518;50.742;4.226;2023-02-07T05:52:15;1.30;99.90
20714;DHT22;10518;50.742;4.226;2023-02-07T05:54:40;1.30;99.90
20714;DHT22;10518;50.742;4.226;2023-02-07T05:57:06;1.30;99.90
20714;DHT22;10518;50.742;4.226;2023-02-07T05:59:32;1.40;99.90
20714;DHT22;10518;50.742;4.226;2023-02-07T06:01:57;1.30;99.90
20714;DHT22;10518;50.742;4.226;2023-02-07T06:04:23;1.40;99.90
20714;DHT22;10518;50.742;4.226;2023-02-07T06:06:48;1.40;99.90
20714;DHT22;10518;50.742;4.226;2023-02-07T06:09:14;1.40;99.90
20714;DHT22;10518;50.742;4.226;2023-02-07T06:11:39;1.50;99.90
20714;DHT22;10518;50.742;4.226;2023-02-07T06:14:05;1.40;99.90
20714;DHT22;10518;50.742;4.226;2023-02-07T06:16:31;1.40;99.90
20714;DHT22;10518;50.742;4.226;2023-02-07T06:18:56;1.30;99.90
20714;DHT22;10518;50.742;4.226;2023-02-07T06:21:22;1.30;99.90
20714;DHT22;10518;50.742;4.226;2023-02-07T06:23:47;1.30;99.90
20714;DHT22;10518;50.742;4.226;2023-02-07T06:26:14;1.40;99.90
20714;DHT22;10518;50.742;4.226;2023-02-07T06:28:40;1.40;99.90
20714;DHT22;10518;50.742;4.226;2023-02-07T06:31:05;1.30;99.90
20714;DHT22;10518;50.742;4.226;2023-02-07T06:33:31;1.40;99.90
20714;DHT22;10518;50.742;4.226;2023-02-07T06:35:57;1.40;99.90
20714;DHT22;10518;50.742;4.226;2023-02-07T06:38:22;1.50;99.90
20714;DHT22;10518;50.742;4.226;2023-02-07T06:40:51;1.60;99.90
20714;DHT22;10518;50.742;4.226;2023-02-07T06:43:16;1.60;99.90
20714;DHT22;10518;50.742;4.226;2023-02-07T06:45:42;1.70;99.90
20714;DHT22;10518;50.742;4.226;2023-02-07T06:48:08;1.90;99.90
20714;DHT22;10518;50.742;4.226;2023-02-07T06:50:34;1.90;99.90
20714;DHT22;10518;50.742;4.226;2023-02-07T06:53:00;1.90;99.90
20714;DHT22;10518;50.742;4.226;2023-02-07T06:55:35;1.80;99.90
20714;DHT22;10518;50.742;4.226;2023-02-07T06:58:00;1.80;99.90
20714;DHT22;10518;50.742;4.226;2023-02-07T07:00:26;1.80;99.90
20714;DHT22;10518;50.742;4.226;2023-02-07T07:02:52;1.70;99.90
20714;DHT22;10518;50.742;4.226;2023-02-07T07:05:18;1.50;99.90
20714;DHT22;10518;50.742;4.226;2023-02-07T07:07:43;1.30;99.90
20714;DHT22;10518;50.742;4.226;2023-02-07T07:10:10;1.40;99.90
20714;DHT22;10518;50.742;4.226;2023-02-07T07:12:35;1.30;99.90
20714;DHT22;10518;50.742;4.226;2023-02-07T07:15:01;1.40;99.90
20714;DHT22;10518;50.742;4.226;2023-02-07T07:17:27;1.20;99.90
20714;DHT22;10518;50.742;4.226;2023-02-07T07:19:52;1.10;99.90
20714;DHT22;10518;50.742;4.226;2023-02-07T07:22:18;0.90;99.90
20714;DHT22;10518;50.742;4.226;2023-02-07T07:24:45;1.10;99.90
20714;DHT22;10518;50.742;4.226;2023-02-07T07:27:11;1.00;99.90
20714;DHT22;10518;50.742;4.226;2023-02-07T07:29:38;1.00;99.90
20714;DHT22;10518;50.742;4.226;2023-02-07T07:32:04;0.90;99.90
20714;DHT22;10518;50.742;4.226;2023-02-07T07:34:30;1.00;99.90
20714;DHT22;10518;50.742;4.226;2023-02-07T07:36:55;1.10;99.90
20714;DHT22;10518;50.742;4.226;2023-02-07T07:39:24;1.10;99.90
20714;DHT22;10518;50.742;4.226;2023-02-07T07:41:50;1.10;99.90
20714;DHT22;10518;50.742;4.226;2023-02-07T07:44:16;0.90;99.90
20714;DHT22;10518;50.742;4.226;2023-02-07T07:46:41;0.90;99.90
20714;DHT22;10518;50.742;4.226;2023-02-07T07:49:07;1.00;99.90
20714;DHT22;10518;50.742;4.226;2023-02-07T07:51:33;1.10;99.90
20714;DHT22;10518;50.742;4.226;2023-02-07T07:54:00;1.00;99.90
20714;DHT22;10518;50.742;4.226;2023-02-07T07:56:25;1.00;99.90
20714;DHT22;10518;50.742;4.226;2023-02-07T07:58:54;1.10;99.90
20714;DHT22;10518;50.742;4.226;2023-02-07T08:01:19;1.10;99.90
20714;DHT22;10518;50.742;4.226;2023-02-07T08:03:45;1.20;99.90
20714;DHT22;10518;50.742;4.226;2023-02-07T08:06:11;1.30;99.90
20714;DHT22;10518;50.742;4.226;2023-02-07T08:08:36;1.40;99.90
20714;DHT22;10518;50.742;4.226;2023-02-07T08:11:08;1.50;99.90
20714;DHT22;10518;50.742;4.226;2023-02-07T08:13:34;1.40;99.90
20714;DHT22;10518;50.742;4.226;2023-02-07T08:16:01;1.40;99.90
20714;DHT22;10518;50.742;4.226;2023-02-07T08:18:27;1.50;99.90
20714;DHT22;10518;50.742;4.226;2023-02-07T08:20:53;1.50;99.90
20714;DHT22;10518;50.742;4.226;2023-02-07T08:23:19;1.40;99.90
20714;DHT22;10518;50.742;4.226;2023-02-07T08:25:44;1.80;99.90
20714;DHT22;10518;50.742;4.226;2023-02-07T08:28:11;2.00;99.90
20714;DHT22;10518;50.742;4.226;2023-02-07T08:30:37;2.10;99.90
20714;DHT22;10518;50.742;4.226;2023-02-07T08:33:03;1.90;99.90
20714;DHT22;10518;50.742;4.226;2023-02-07T08:35:28;1.90;99.90
20714;DHT22;10518;50.742;4.226;2023-02-07T08:37:54;1.70;99.90
20714;DHT22;10518;50.742;4.226;2023-02-07T08:40:23;1.60;99.90
20714;DHT22;10518;50.742;4.226;2023-02-07T08:42:49;1.60;99.90
20714;DHT22;10518;50.742;4.226;2023-02-07T08:45:15;1.60;99.90
20714;DHT22;10518;50.742;4.226;2023-02-07T08:47:42;1.70;99.90
20714;DHT22;10518;50.742;4.226;2023-02-07T08:50:08;1.70;99.90
20714;DHT22;10518;50.742;4.226;2023-02-07T08:52:34;1.80;99.90
20714;DHT22;10518;50.742;4.226;2023-02-07T08:54:59;1.80;99.90
20714;DHT22;10518;50.742;4.226;2023-02-07T08:57:26;1.70;99.90
20714;DHT22;10518;50.742;4.226;2023-02-07T08:59:52;1.90;99.90
20714;DHT22;10518;50.742;4.226;2023-02-07T09:02:18;1.70;99.90
20714;DHT22;10518;50.742;4.226;2023-02-07T09:04:44;1.60;99.90
20714;DHT22;10518;50.742;4.226;2023-02-07T09:07:13;1.50;99.90
20714;DHT22;10518;50.742;4.226;2023-02-07T09:09:39;1.50;99.90
20714;DHT22;10518;50.742;4.226;2023-02-07T09:12:05;1.60;99.90
20714;DHT22;10518;50.742;4.226;2023-02-07T09:14:31;1.70;99.90
20714;DHT22;10518;50.742;4.226;2023-02-07T09:16:57;1.80;99.90
20714;DHT22;10518;50.742;4.226;2023-02-07T09:19:22;1.70;99.90
20714;DHT22;10518;50.742;4.226;2023-02-07T09:21:48;1.50;99.90
20714;DHT22;10518;50.742;4.226;2023-02-07T09:24:13;1.50;99.90
20714;DHT22;10518;50.742;4.226;2023-02-07T09:26:39;1.60;99.90
20714;DHT22;10518;50.742;4.226;2023-02-07T09:29:06;1.70;99.90
20714;DHT22;10518;50.742;4.226;2023-02-07T09:31:33;1.70;99.90
20714;DHT22;10518;50.742;4.226;2023-02-07T09:33:59;1.50;99.90
20714;DHT22;10518;50.742;4.226;2023-02-07T09:36:26;1.50;99.90
20714;DHT22;10518;50.742;4.226;2023-02-07T09:38:53;1.50;99.90
20714;DHT22;10518;50.742;4.226;2023-02-07T09:41:39;1.80;99.90
20714;DHT22;10518;50.742;4.226;2023-02-07T09:46:48;1.90;99.90
20714;DHT22;10518;50.742;4.226;2023-02-07T09:51:48;2.00;99.90
20714;DHT22;10518;50.742;4.226;2023-02-07T09:54:27;2.00;99.90
20714;DHT22;10518;50.742;4.226;2023-02-07T09:56:56;2.10;99.90
20714;DHT22;10518;50.742;4.226;2023-02-07T09:59:53;2.10;99.90
20714;DHT22;10518;50.742;4.226;2023-02-07T10:02:34;2.20;99.90
20714;DHT22;10518;50.742;4.226;2023-02-07T10:05:04;2.20;99.90
20714;DHT22;10518;50.742;4.226;2023-02-07T10:07:32;2.20;99.90
20714;DHT22;10518;50.742;4.226;2023-02-07T10:09:57;2.20;99.90
20714;DHT22;10518;50.742;4.226;2023-02-07T10:12:30;2.20;99.90
20714;DHT22;10518;50.742;4.226;2023-02-07T10:15:14;2.10;99.90
20714;DHT22;10518;50.742;4.226;2023-02-07T10:25:53;2.70;99.90
20714;DHT22;10518;50.742;4.226;2023-02-07T10:31:01;2.60;99.90
20714;DHT22;10518;50.742;4.226;2023-02-07T10:33:31;2.70;99.90
20714;DHT22;10518;50.742;4.226;2023-02-07T10:36:04;3.00;99.90
20714;DHT22;10518;50.742;4.226;2023-02-07T10:41:39;3.00;99.90
20714;DHT22;10518;50.742;4.226;2023-02-07T10:44:09;2.90;99.90
20714;DHT22;10518;50.742;4.226;2023-02-07T10:46:36;2.80;99.90
20714;DHT22;10518;50.742;4.226;2023-02-07T10:49:03;2.90;99.90
20714;DHT22;10518;50.742;4.226;2023-02-07T10:51:31;2.90;99.90
20714;DHT22;10518;50.742;4.226;2023-02-07T10:54:08;3.00;99.90
20714;DHT22;10518;50.742;4.226;2023-02-07T10:56:43;3.10;99.90
20714;DHT22;10518;50.742;4.226;2023-02-07T11:01:56;3.30;99.90
20714;DHT22;10518;50.742;4.226;2023-02-07T11:04:32;3.40;99.90
20714;DHT22;10518;50.742;4.226;2023-02-07T11:07:00;3.40;99.90
20714;DHT22;10518;50.742;4.226;2023-02-07T11:09:26;3.40;99.90
20714;DHT22;10518;50.742;4.226;2023-02-07T11:11:53;3.50;99.90
20714;DHT22;10518;50.742;4.226;2023-02-07T11:14:23;3.50;99.90
20714;DHT22;10518;50.742;4.226;2023-02-07T11:16:56;3.50;99.90
20714;DHT22;10518;50.742;4.226;2023-02-07T11:19:25;3.70;99.90
20714;DHT22;10518;50.742;4.226;2023-02-07T11:22:04;3.90;99.90
20714;DHT22;10518;50.742;4.226;2023-02-07T11:24:34;4.00;99.90
20714;DHT22;10518;50.742;4.226;2023-02-07T11:27:18;4.20;99.90
20714;DHT22;10518;50.742;4.226;2023-02-07T11:30:07;4.30;99.90
20714;DHT22;10518;50.742;4.226;2023-02-07T11:32:34;4.20;99.90
20714;DHT22;10518;50.742;4.226;2023-02-07T11:35:07;4.30;99.90
20714;DHT22;10518;50.742;4.226;2023-02-07T11:37:46;4.20;99.90
20714;DHT22;10518;50.742;4.226;2023-02-07T11:42:47;4.10;99.90
20714;DHT22;10518;50.742;4.226;2023-02-07T11:45:14;4.10;99.90
20714;DHT22;10518;50.742;4.226;2023-02-07T11:47:43;4.20;99.90
20714;DHT22;10518;50.742;4.226;2023-02-07T11:50:19;4.30;99.90
20714;DHT22;10518;50.742;4.226;2023-02-07T11:53:04;4.30;99.90
20714;DHT22;10518;50.742;4.226;2023-02-07T11:55:34;4.70;99.90
20714;DHT22;10518;50.742;4.226;2023-02-07T11:58:07;4.90;99.90
20714;DHT22;10518;50.742;4.226;2023-02-07T12:00:35;4.70;99.90
20714;DHT22;10518;50.742;4.226;2023-02-07T12:03:05;4.70;99.90
20714;DHT22;10518;50.742;4.226;2023-02-07T12:05:43;4.70;99.90
20714;DHT22;10518;50.742;4.226;2023-02-07T12:08:20;4.60;99.90
20714;DHT22;10518;50.742;4.226;2023-02-07T12:10:59;4.60;99.90
20714;DHT22;10518;50.742;4.226;2023-02-07T12:13:34;5.00;99.90
20714;DHT22;10518;50.742;4.226;2023-02-07T12:16:03;5.40;99.90
20714;DHT22;10518;50.742;4.226;2023-02-07T12:18:54;5.60;99.90
20714;DHT22;10518;50.742;4.226;2023-02-07T12:21:40;5.10;99.90
20714;DHT22;10518;50.742;4.226;2023-02-07T12:24:26;5.20;99.90
20714;DHT22;10518;50.742;4.226;2023-02-07T12:27:14;5.20;99.90
20714;DHT22;10518;50.742;4.226;2023-02-07T12:30:03;5.30;99.90
20714;DHT22;10518;50.742;4.226;2023-02-07T12:38:15;5.30;99.90
20714;DHT22;10518;50.742;4.226;2023-02-07T12:41:04;5.10;99.90
20714;DHT22;10518;50.742;4.226;2023-02-07T12:44:18;5.10;99.90
20714;DHT22;10518;50.742;4.226;2023-02-07T12:46:55;5.00;99.90
20714;DHT22;10518;50.742;4.226;2023-02-07T12:52:15;5.20;99.90
20714;DHT22;10518;50.742;4.226;2023-02-07T13:03:16;5.40;99.90
20714;DHT22;10518;50.742;4.226;2023-02-07T13:06:08;5.40;99.90
20714;DHT22;10518;50.742;4.226;2023-02-07T13:08:58;5.50;99.90
20714;DHT22;10518;50.742;4.226;2023-02-07T13:22:59;5.70;99.90
20714;DHT22;10518;50.742;4.226;2023-02-07T13:25:33;5.70;99.90
20714;DHT22;10518;50.742;4.226;2023-02-07T13:28:04;6.40;99.90
20714;DHT22;10518;50.742;4.226;2023-02-07T13:30:31;6.60;99.90
20714;DHT22;10518;50.742;4.226;2023-02-07T13:33:02;6.40;99.90
20714;DHT22;10518;50.742;4.226;2023-02-07T13:35:31;6.30;99.90
20714;DHT22;10518;50.742;4.226;2023-02-07T13:41:04;6.10;99.90
20714;DHT22;10518;50.742;4.226;2023-02-07T13:55:14;6.40;99.90
20714;DHT22;10518;50.742;4.226;2023-02-07T13:57:43;6.30;99.90
20714;DHT22;10518;50.742;4.226;2023-02-07T14:00:30;6.30;99.90
20714;DHT22;10518;50.742;4.226;2023-02-07T14:03:01;6.40;99.90
20714;DHT22;10518;50.742;4.226;2023-02-07T14:05:42;6.30;99.90
20714;DHT22;10518;50.742;4.226;2023-02-07T14:10:49;6.30;99.90
20714;DHT22;10518;50.742;4.226;2023-02-07T14:13:33;6.30;99.90
20714;DHT22;10518;50.742;4.226;2023-02-07T14:18:56;6.40;99.90
20714;DHT22;10518;50.742;4.226;2023-02-07T14:21:28;6.40;99.90
20714;DHT22;10518;50.742;4.226;2023-02-07T14:26:50;6.50;99.90
20714;DHT22;10518;50.742;4.226;2023-02-07T14:31:59;6.50;99.90
20714;DHT22;10518;50.742;4.226;2023-02-07T14:34:30;6.60;99.90
20714;DHT22;10518;50.742;4.226;2023-02-07T14:36:56;6.50;99.90
20714;DHT22;10518;50.742;4.226;2023-02-07T14:39:32;6.50;99.90
20714;DHT22;10518;50.742;4.226;2023-02-07T14:42:15;6.60;99.90
20714;DHT22;10518;50.742;4.226;2023-02-07T14:44:43;6.70;99.90
20714;DHT22;10518;50.742;4.226;2023-02-07T14:47:20;6.70;99.90
20714;DHT22;10518;50.742;4.226;2023-02-07T14:49:48;6.80;99.90
20714;DHT22;10518;50.742;4.226;2023-02-07T14:52:22;6.70;99.90
20714;DHT22;10518;50.742;4.226;2023-02-07T15:03:00;6.60;99.90
20714;DHT22;10518;50.742;4.226;2023-02-07T15:05:34;6.60;99.90
20714;DHT22;10518;50.742;4.226;2023-02-07T15:08:14;6.50;99.90
20714;DHT22;10518;50.742;4.226;2023-02-07T15:10:53;6.50;99.90
20714;DHT22;10518;50.742;4.226;2023-02-07T15:13:35;6.40;99.90
20714;DHT22;10518;50.742;4.226;2023-02-07T15:16:27;6.30;99.90
20714;DHT22;10518;50.742;4.226;2023-02-07T15:18:55;6.30;99.90
20714;DHT22;10518;50.742;4.226;2023-02-07T15:21:33;6.40;99.90
20714;DHT22;10518;50.742;4.226;2023-02-07T15:26:29;6.40;99.90
20714;DHT22;10518;50.742;4.226;2023-02-07T15:29:03;6.40;99.90
20714;DHT22;10518;50.742;4.226;2023-02-07T15:31:29;6.50;99.90
20714;DHT22;10518;50.742;4.226;2023-02-07T15:33:59;6.50;99.90
20714;DHT22;10518;50.742;4.226;2023-02-07T15:38:51;6.40;99.90
20714;DHT22;10518;50.742;4.226;2023-02-07T15:41:17;6.40;99.90
20714;DHT22;10518;50.742;4.226;2023-02-07T15:47:02;6.40;99.90
20714;DHT22;10518;50.742;4.226;2023-02-07T15:49:56;6.30;99.90
20714;DHT22;10518;50.742;4.226;2023-02-07T15:52:27;6.20;99.90
20714;DHT22;10518;50.742;4.226;2023-02-07T15:54:54;6.30;99.90
20714;DHT22;10518;50.742;4.226;2023-02-07T15:57:24;6.30;99.90
20714;DHT22;10518;50.742;4.226;2023-02-07T15:59:53;6.30;99.90
20714;DHT22;10518;50.742;4.226;2023-02-07T16:02:27;6.20;99.90
20714;DHT22;10518;50.742;4.226;2023-02-07T16:04:54;6.10;99.90
20714;DHT22;10518;50.742;4.226;2023-02-07T16:07:21;6.10;99.90
20714;DHT22;10518;50.742;4.226;2023-02-07T16:09:47;6.10;99.90
20714;DHT22;10518;50.742;4.226;2023-02-07T16:12:41;6.20;99.90
20714;DHT22;10518;50.742;4.226;2023-02-07T16:15:25;6.00;99.90
20714;DHT22;10518;50.742;4.226;2023-02-07T16:17:52;6.00;99.90
20714;DHT22;10518;50.742;4.226;2023-02-07T16:20:18;6.00;99.90
20714;DHT22;10518;50.742;4.226;2023-02-07T16:22:44;6.00;99.90
20714;DHT22;10518;50.742;4.226;2023-02-07T16:25:17;5.90;99.90
20714;DHT22;10518;50.742;4.226;2023-02-07T16:27:44;5.90;99.90
20714;DHT22;10518;50.742;4.226;2023-02-07T16:30:19;5.80;99.90
20714;DHT22;10518;50.742;4.226;2023-02-07T16:32:46;5.80;99.90
20714;DHT22;10518;50.742;4.226;2023-02-07T16:35:18;5.70;99.90
20714;DHT22;10518;50.742;4.226;2023-02-07T16:37:44;5.70;99.90
20714;DHT22;10518;50.742;4.226;2023-02-07T16:40:12;5.60;99.90
20714;DHT22;10518;50.742;4.226;2023-02-07T16:42:39;5.80;99.90
20714;DHT22;10518;50.742;4.226;2023-02-07T16:45:05;5.80;99.90
20714;DHT22;10518;50.742;4.226;2023-02-07T16:47:34;5.90;99.90
20714;DHT22;10518;50.742;4.226;2023-02-07T16:50:00;5.70;99.90
20714;DHT22;10518;50.742;4.226;2023-02-07T16:52:25;5.70;99.90
20714;DHT22;10518;50.742;4.226;2023-02-07T16:54:51;5.50;99.90
20714;DHT22;10518;50.742;4.226;2023-02-07T16:57:16;5.50;99.90
20714;DHT22;10518;50.742;4.226;2023-02-07T16:59:42;5.40;99.90
20714;DHT22;10518;50.742;4.226;2023-02-07T17:02:14;5.30;99.90
20714;DHT22;10518;50.742;4.226;2023-02-07T17:04:40;5.30;99.90
20714;DHT22;10518;50.742;4.226;2023-02-07T17:07:09;5.20;99.90
20714;DHT22;10518;50.742;4.226;2023-02-07T17:09:35;5.10;99.90
20714;DHT22;10518;50.742;4.226;2023-02-07T17:12:01;5.10;99.90
20714;DHT22;10518;50.742;4.226;2023-02-07T17:14:26;5.00;99.90
20714;DHT22;10518;50.742;4.226;2023-02-07T17:16:52;5.20;99.90
20714;DHT22;10518;50.742;4.226;2023-02-07T17:19:20;5.10;99.90
20714;DHT22;10518;50.742;4.226;2023-02-07T17:21:50;5.00;99.90
20714;DHT22;10518;50.742;4.226;2023-02-07T17:24:16;5.00;99.90
20714;DHT22;10518;50.742;4.226;2023-02-07T17:26:45;4.80;99.90
20714;DHT22;10518;50.742;4.226;2023-02-07T17:29:13;4.70;99.90
20714;DHT22;10518;50.742;4.226;2023-02-07T17:31:40;4.80;99.90
20714;DHT22;10518;50.742;4.226;2023-02-07T17:34:06;4.70;99.90
20714;DHT22;10518;50.742;4.226;2023-02-07T17:36:32;4.70;99.90
20714;DHT22;10518;50.742;4.226;2023-02-07T17:38:58;4.70;99.90
20714;DHT22;10518;50.742;4.226;2023-02-07T17:41:25;4.60;99.90
20714;DHT22;10518;50.742;4.226;2023-02-07T17:43:51;4.50;99.90
20714;DHT22;10518;50.742;4.226;2023-02-07T17:46:18;4.30;99.90
20714;DHT22;10518;50.742;4.226;2023-02-07T17:48:45;4.20;99.90
20714;DHT22;10518;50.742;4.226;2023-02-07T17:51:13;4.10;99.90
20714;DHT22;10518;50.742;4.226;2023-02-07T17:53:38;4.00;99.90
20714;DHT22;10518;50.742;4.226;2023-02-07T17:56:04;3.90;99.90
20714;DHT22;10518;50.742;4.226;2023-02-07T17:58:32;3.70;99.90
20714;DHT22;10518;50.742;4.226;2023-02-07T18:01:03;3.60;99.90
20714;DHT22;10518;50.742;4.226;2023-02-07T18:03:29;3.50;99.90
20714;DHT22;10518;50.742;4.226;2023-02-07T18:05:54;3.40;99.90
20714;DHT22;10518;50.742;4.226;2023-02-07T18:08:22;3.30;99.90